Nuiqsut, AK

6:27 AM AKST on February 11, 2016 (GMT -0900)
Nuiqsut | | Change Station
CLOSE
Current Station
Airport
Location: Nuiqsut,
Elevation: 39 ft
Nearby Weather Stations

Elev 39 ft 70.21 °N, 150.99 °W | Updated 34 minutes ago

Overcast
Overcast
-6 °F
Feels Like -28 °F
N
16
Wind Variable Wind from East

Today
High -- | Low -- °F
--% Chance of Precip.
Yesterday
High -- | Low -- °F
Precip. -- in
Pressure 30.07 in
Visibility 6.0 miles
Clouds Overcast 1500 ft
Windchill -28 °F
Dew Point -10 °F
Humidity 83%
Rainfall 0.00 in
Snow Depth Not available.
10:00 AM 4:37 PM
Waxing Crescent, 12% visible
METAR PAQT 111453Z AUTO 10014KT 6SM BR OVC015 M21/M23 A3007 RMK AO2 SLP183 T12111233 58008 TSNO
Pressure 30.07 in
Visibility 6.0 miles
Clouds Overcast 1500 ft
Windchill -28 °F
Dew Point -10 °F
Humidity 83%
Rainfall 0.00 in
Snow Depth Not available.
10:00 AM 4:37 PM
Waxing Crescent, 12% visible
METAR PAQT 111453Z AUTO 10014KT 6SM BR OVC015 M21/M23 A3007 RMK AO2 SLP183 T12111233 58008 TSNO

10-Day Weather Forecast

Almanac

Astronomy

Feb. 11, 2016 Rise Set
Actual Time
Civil Twilight
Nautical Twilight
Astronomical Twilight
Moon
Length of Visible Light
Length of Day
Tomorrow will be .
, % of the Moon is Illuminated

Today's Extremes

State Highs State Lows

Community

WunderPhotos

Upload Photos

1,892,066 photos uploaded!

WunderBlog® & News

Nearby

Air Quality

  Air Quality AQ Index Pollutant
Not available.

Snow Depth

Station Depth Elevation

Earthquake Activity

City Distance Mag. Time & Date
Minimum magnitude displayed is 2.5.

Coastal Water Temperatures

Place Temperature

Stations

Nearby Weather Stations

Station Location Temp. Windchill Dew Point Humidity Wind Precip. Elev Updated Type
                   

Watches & Warnings

There are currently no watches in effect.